Time;durP1;ratioP1;P1;durP2;ratioP2;P2;SDS_P1;SDS_P2;PMS_P1;PMS_P2;Temp;Humidity;BMP_temperature;BMP_pressure;BME280_temperature;BME280_humidity;BME280_pressure;Samples;Min_cycle;Max_cycle;Signal;HPM_P1;HPM_P2
2021/01/31 00:00:41;;;;;;;24.50;7.50;;;-1.80;99.90;;;;;;5054823;28;20459;-76
2021/01/31 00:03:13;;;;;;;24.10;8.27;;;-1.80;99.90;;;;;;5040229;28;20060;-76
2021/01/31 00:05:38;;;;;;;27.25;8.40;;;-1.90;99.90;;;;;;5039112;28;20449;-76
2021/01/31 00:08:07;;;;;;;24.90;8.75;;;-1.90;99.90;;;;;;5042150;28;20025;-77
2021/01/31 00:10:33;;;;;;;24.52;8.95;;;-1.90;99.90;;;;;;5033452;28;20121;-76
2021/01/31 00:12:59;;;;;;;24.80;9.20;;;-1.90;99.90;;;;;;5035710;28;20101;-77
2021/01/31 00:15:30;;;;;;;23.50;7.82;;;-1.90;99.90;;;;;;5036274;28;20021;-76
2021/01/31 00:17:56;;;;;;;25.38;8.73;;;-1.90;99.90;;;;;;5053859;28;20021;-75
2021/01/31 00:20:24;;;;;;;26.20;8.40;;;-1.90;99.90;;;;;;5040272;28;20152;-77
2021/01/31 00:22:50;;;;;;;28.20;8.65;;;-1.90;99.90;;;;;;5034900;28;20025;-77
2021/01/31 00:25:16;;;;;;;25.20;8.20;;;-2.00;99.90;;;;;;5034820;28;20026;-76
2021/01/31 00:27:42;;;;;;;22.85;7.45;;;-2.00;99.90;;;;;;5054837;28;20052;-76
2021/01/31 00:30:15;;;;;;;20.52;7.32;;;-2.00;99.90;;;;;;5055632;28;20025;-76
2021/01/31 00:32:40;;;;;;;22.92;8.05;;;-2.10;99.90;;;;;;5070181;22;20102;-76
2021/01/31 00:35:07;;;;;;;22.92;8.60;;;-2.10;99.90;;;;;;5053602;28;20017;-78
2021/01/31 00:37:32;;;;;;;26.45;7.22;;;-2.10;99.90;;;;;;5052927;28;20029;-76
2021/01/31 00:39:58;;;;;;;24.08;7.13;;;-2.10;99.90;;;;;;5037456;28;20036;-76
2021/01/31 00:42:23;;;;;;;25.33;8.10;;;-2.10;99.90;;;;;;5050737;23;20018;-77
2021/01/31 00:44:51;;;;;;;25.63;7.90;;;-2.20;99.90;;;;;;5055493;28;20025;-76
2021/01/31 00:47:19;;;;;;;26.00;8.18;;;-2.20;99.90;;;;;;5054127;28;20028;-75
2021/01/31 00:49:45;;;;;;;25.27;7.82;;;-2.20;99.90;;;;;;5054994;28;20025;-75
2021/01/31 00:52:11;;;;;;;23.08;7.65;;;-2.20;99.90;;;;;;5047386;28;20021;-75
2021/01/31 00:54:37;;;;;;;24.85;7.85;;;-2.20;99.90;;;;;;5033652;28;20049;-75
2021/01/31 00:57:03;;;;;;;22.77;7.15;;;-2.20;99.90;;;;;;5036167;28;20022;-76
2021/01/31 00:59:29;;;;;;;24.90;8.02;;;-2.20;99.90;;;;;;5034816;28;20033;-76
2021/01/31 01:01:54;;;;;;;23.95;8.25;;;-2.30;99.90;;;;;;5036564;28;20017;-75
2021/01/31 01:04:20;;;;;;;22.70;7.63;;;-2.30;99.90;;;;;;5055052;28;20034;-76
2021/01/31 01:06:48;;;;;;;22.05;7.45;;;-2.30;99.90;;;;;;5055125;28;20040;-75
2021/01/31 01:09:13;;;;;;;26.00;8.53;;;-2.30;99.90;;;;;;5057364;28;20029;-75
2021/01/31 01:11:39;;;;;;;25.17;8.02;;;-2.30;99.90;;;;;;5053791;28;20078;-74
2021/01/31 01:14:06;;;;;;;23.88;7.22;;;-2.40;99.90;;;;;;5053798;28;20024;-75
2021/01/31 01:16:32;;;;;;;24.45;7.90;;;-2.40;99.90;;;;;;5045063;28;20499;-75
2021/01/31 01:19:04;;;;;;;24.10;7.25;;;-2.40;99.90;;;;;;5035066;28;20022;-75
2021/01/31 01:21:31;;;;;;;25.63;7.20;;;-2.40;99.90;;;;;;5036689;28;20037;-76
2021/01/31 01:23:58;;;;;;;21.60;7.05;;;-2.40;99.90;;;;;;5037066;28;20467;-75
2021/01/31 01:26:31;;;;;;;25.40;8.30;;;-2.40;99.90;;;;;;5040745;28;20032;-76
2021/01/31 01:31:25;;;;;;;24.63;8.38;;;-2.40;99.90;;;;;;5098990;22;20148;-75
2021/01/31 01:33:51;;;;;;;24.92;7.80;;;-2.50;99.90;;;;;;5062092;28;20037;-76
2021/01/31 01:36:20;;;;;;;27.60;8.27;;;-2.50;99.90;;;;;;5060123;28;20021;-77
2021/01/31 01:38:46;;;;;;;22.80;7.70;;;-2.50;99.90;;;;;;5058657;28;20400;-78
2021/01/31 01:41:11;;;;;;;23.08;7.97;;;-2.50;99.90;;;;;;5059767;28;20021;-75
2021/01/31 01:43:40;;;;;;;23.80;7.72;;;-2.50;99.90;;;;;;5060950;28;20032;-75
2021/01/31 01:46:17;;;;;;;22.33;7.55;;;-2.40;99.90;;;;;;5062026;28;20021;-77
2021/01/31 01:48:53;;;;;;;22.63;7.32;;;-2.60;99.90;;;;;;5070366;23;20045;-78
2021/01/31 01:51:32;;;;;;;21.98;7.00;;;-2.60;99.90;;;;;;5040208;28;20119;-76
2021/01/31 01:54:01;;;;;;;25.25;7.95;;;-2.60;99.90;;;;;;5039518;28;20029;-75
2021/01/31 01:56:39;;;;;;;19.50;6.88;;;-2.60;99.90;;;;;;5021159;28;20547;-75
2021/01/31 01:59:08;;;;;;;24.92;7.32;;;-2.60;99.90;;;;;;5038767;28;20109;-77
2021/01/31 02:01:34;;;;;;;26.02;7.30;;;-2.60;99.90;;;;;;5023529;28;20048;-75
2021/01/31 02:04:04;;;;;;;25.08;7.35;;;-2.60;99.90;;;;;;5030796;28;20036;-76
2021/01/31 02:06:30;;;;;;;23.75;7.30;;;-2.70;99.90;;;;;;5001008;28;20032;-76
2021/01/31 02:08:58;;;;;;;24.60;7.38;;;-2.70;99.90;;;;;;5017034;28;20034;-75
2021/01/31 02:11:26;;;;;;;22.45;6.05;;;-2.60;99.90;;;;;;5016948;28;20047;-75
2021/01/31 02:13:59;;;;;;;24.60;7.57;;;-2.70;99.90;;;;;;5016727;28;20026;-75
2021/01/31 02:16:50;;;;;;;26.00;8.95;;;-2.70;99.90;;;;;;5070396;22;20455;-76
2021/01/31 02:19:25;;;;;;;28.70;8.60;;;-2.70;99.90;;;;;;5056319;28;20100;-75
2021/01/31 02:22:33;;;;;;;26.98;7.90;;;-2.70;99.90;;;;;;5041550;28;20048;-76
2021/01/31 02:25:15;;;;;;;24.73;7.60;;;-2.70;99.90;;;;;;5043892;28;20109;-76
2021/01/31 02:28:00;;;;;;;22.90;7.60;;;-2.80;99.90;;;;;;5105945;23;20664;-78
2021/01/31 02:30:51;;;;;;;23.83;8.45;;;-2.70;99.90;;;;;;5030257;28;20116;-75
2021/01/31 02:33:47;;;;;;;25.20;7.97;;;-2.70;99.90;;;;;;5020557;28;20030;-76
2021/01/31 02:36:32;;;;;;;24.20;7.65;;;-2.70;99.90;;;;;;5018867;28;20116;-76
2021/01/31 02:39:24;;;;;;;24.73;7.90;;;-2.80;99.90;;;;;;5018710;28;20018;-75
2021/01/31 02:42:06;;;;;;;25.38;7.63;;;-2.80;99.90;;;;;;5019868;28;20079;-75
2021/01/31 02:44:36;;;;;;;33.08;9.27;;;-2.80;99.90;;;;;;5032976;28;20060;-75
2021/01/31 02:47:11;;;;;;;23.52;7.68;;;-2.80;99.90;;;;;;5039896;28;20017;-76
2021/01/31 02:49:43;;;;;;;25.52;7.90;;;-2.80;99.90;;;;;;5039113;28;20030;-77
2021/01/31 02:52:18;;;;;;;24.15;7.32;;;-2.80;99.90;;;;;;5040121;28;20025;-76
2021/01/31 02:54:54;;;;;;;24.58;7.72;;;-2.80;99.90;;;;;;5041750;28;20021;-76
2021/01/31 02:57:34;;;;;;;23.45;7.50;;;-2.90;99.90;;;;;;5038545;28;20480;-77
2021/01/31 03:00:06;;;;;;;24.30;7.93;;;-2.90;99.90;;;;;;5041214;28;20018;-78
2021/01/31 03:03:06;;;;;;;23.73;8.15;;;-2.90;99.90;;;;;;5037863;28;20030;-77
2021/01/31 03:05:41;;;;;;;24.17;7.75;;;-2.90;99.90;;;;;;5038555;28;20057;-76
2021/01/31 03:08:19;;;;;;;23.50;7.72;;;-2.90;99.90;;;;;;5038865;28;20029;-75
2021/01/31 03:10:58;;;;;;;23.17;7.78;;;-3.00;99.90;;;;;;5021955;28;20109;-76
2021/01/31 03:14:01;;;;;;;23.00;7.63;;;-3.00;99.90;;;;;;5038095;23;20049;-76
2021/01/31 03:16:38;;;;;;;27.23;8.20;;;-3.00;99.90;;;;;;5037513;28;20484;-76
2021/01/31 03:19:13;;;;;;;24.05;7.35;;;-3.00;99.90;;;;;;5052324;23;20036;-75
2021/01/31 03:21:44;;;;;;;21.67;7.32;;;-3.00;99.90;;;;;;5085146;23;20043;-76
2021/01/31 03:24:39;;;;;;;23.58;7.63;;;-3.00;99.90;;;;;;5059612;28;20020;-75
2021/01/31 03:27:08;;;;;;;26.52;8.15;;;-3.00;99.90;;;;;;5014070;28;20073;-76
2021/01/31 03:29:36;;;;;;;;;;;-1.70;99.90;;;;;;5002296;28;20022;-76
2021/01/31 03:32:17;;;;;;;25.83;7.78;;;-3.10;99.90;;;;;;5019263;28;20364;-76
2021/01/31 03:34:50;;;;;;;27.05;7.85;;;-3.10;99.90;;;;;;5017086;28;20058;-75
2021/01/31 03:37:16;;;;;;;23.33;7.75;;;-3.10;99.90;;;;;;4999216;28;20026;-76
2021/01/31 03:39:44;;;;;;;20.15;7.00;;;-3.20;99.90;;;;;;4999172;28;20042;-75
2021/01/31 03:42:11;;;;;;;26.80;8.60;;;-3.20;99.90;;;;;;5028155;28;20025;-75
2021/01/31 03:44:42;;;;;;;28.63;8.20;;;-3.20;99.90;;;;;;5036123;28;20026;-75
2021/01/31 03:47:15;;;;;;;22.05;7.10;;;-3.20;99.90;;;;;;5038346;28;20033;-75
2021/01/31 03:49:52;;;;;;;24.40;7.22;;;-3.20;99.90;;;;;;5038129;28;20113;-75
2021/01/31 03:52:18;;;;;;;26.73;7.72;;;-3.20;99.90;;;;;;5018403;28;20021;-75
2021/01/31 03:54:44;;;;;;;25.02;7.57;;;-3.20;99.90;;;;;;5020596;28;20068;-75
2021/01/31 03:57:34;;;;;;;21.83;7.20;;;-3.30;99.90;;;;;;5037489;28;20017;-75
2021/01/31 04:00:09;;;;;;;24.25;6.93;;;-3.30;99.90;;;;;;5037919;28;20089;-76
2021/01/31 04:02:43;;;;;;;21.63;6.63;;;-3.30;99.90;;;;;;5038846;28;20052;-77
2021/01/31 04:05:11;;;;;;;25.17;7.85;;;-3.30;99.90;;;;;;5036181;28;20479;-75
2021/01/31 04:07:44;;;;;;;22.20;6.85;;;-3.40;99.90;;;;;;5036823;28;20025;-76
2021/01/31 04:10:15;;;;;;;25.85;7.88;;;-3.30;99.90;;;;;;5036317;28;20430;-77
2021/01/31 04:12:46;;;;;;;22.60;6.80;;;-3.30;99.90;;;;;;5020657;28;20434;-74
2021/01/31 04:15:34;;;;;;;25.40;7.65;;;-3.40;99.90;;;;;;5037002;28;20495;-75
2021/01/31 04:18:00;;;;;;;26.65;8.05;;;-3.30;99.90;;;;;;5037738;28;20450;-77
2021/01/31 04:20:26;;;;;;;22.17;7.05;;;-3.40;99.90;;;;;;5038468;28;20156;-75
2021/01/31 04:22:51;;;;;;;22.40;7.47;;;-2.60;99.90;;;;;;5069419;23;20060;-76
2021/01/31 04:25:18;;;;;;;22.75;7.28;;;-3.40;99.90;;;;;;5057844;28;20051;-75
2021/01/31 04:27:43;;;;;;;20.92;6.75;;;-3.50;99.90;;;;;;5058711;28;20017;-75
2021/01/31 04:30:13;;;;;;;25.55;7.18;;;-3.40;99.90;;;;;;5040506;28;20025;-75
2021/01/31 04:32:47;;;;;;;24.33;6.78;;;-3.40;99.90;;;;;;5128152;23;20049;-76
2021/01/31 04:35:14;;;;;;;27.90;7.22;;;-3.40;99.90;;;;;;5038174;28;20036;-76
2021/01/31 04:37:40;;;;;;;25.27;7.70;;;-3.90;99.90;;;;;;5055587;28;20024;-76
2021/01/31 04:40:13;;;;;;;22.65;7.30;;;-3.80;99.90;;;;;;5054917;28;20082;-77
2021/01/31 04:45:11;;;;;;;23.27;6.93;;;-3.40;99.90;;;;;;5057480;28;20041;-76
2021/01/31 04:47:45;;;;;;;26.10;7.82;;;-3.40;99.90;;;;;;5053646;28;20053;-77
2021/01/31 04:50:31;;;;;;;24.42;7.00;;;-3.40;99.90;;;;;;5056625;28;20032;-76
2021/01/31 04:53:13;;;;;;;25.85;7.55;;;-3.40;99.90;;;;;;5035905;28;20069;-76
2021/01/31 04:56:13;;;;;;;27.00;7.53;;;-2.10;99.90;;;;;;5035498;28;20435;-77
2021/01/31 04:58:49;;;;;;;26.58;7.75;;;-3.50;99.90;;;;;;5031205;28;20539;-76
2021/01/31 05:01:30;;;;;;;26.73;7.68;;;-3.50;99.90;;;;;;5041250;28;20030;-77
2021/01/31 05:04:00;;;;;;;29.25;7.93;;;-3.50;99.90;;;;;;5038346;28;20036;-76
2021/01/31 05:06:31;;;;;;;26.45;7.88;;;-3.50;99.90;;;;;;5062568;22;20045;-76
2021/01/31 05:08:58;;;;;;;24.77;7.85;;;-3.50;99.90;;;;;;5060945;22;20107;-76
2021/01/31 05:11:29;;;;;;;24.52;7.35;;;-2.00;99.90;;;;;;5019923;28;20044;-75
2021/01/31 05:14:10;;;;;;;27.17;7.95;;;-3.70;99.90;;;;;;5167497;22;20219;-77
2021/01/31 05:16:39;;;;;;;22.52;6.78;;;-4.10;99.90;;;;;;5021969;28;20060;-76
2021/01/31 05:19:06;;;;;;;;;;;-4.20;99.90;;;;;;5058646;23;20051;-76
2021/01/31 05:21:34;;;;;;;25.13;7.55;;;-3.60;99.90;;;;;;5053448;22;19921;-78
2021/01/31 05:24:14;;;;;;;36.88;8.00;;;-3.80;99.90;;;;;;5022430;28;20542;-76
2021/01/31 05:26:53;;;;;;;26.42;7.30;;;-3.60;99.90;;;;;;5020440;28;20060;-77
2021/01/31 05:29:28;;;;;;;27.80;8.23;;;-3.70;99.90;;;;;;5018723;28;20026;-76
2021/01/31 05:32:10;;;;;;;27.00;7.45;;;-3.70;99.90;;;;;;5017627;28;20387;-75
2021/01/31 05:34:49;;;;;;;25.63;8.05;;;-3.70;99.90;;;;;;5041905;23;20075;-76
2021/01/31 05:37:19;;;;;;;28.73;8.38;;;-3.70;99.90;;;;;;5007734;23;20118;-77
2021/01/31 05:39:55;;;;;;;25.00;7.70;;;-3.80;99.90;;;;;;5061193;28;20025;-76
2021/01/31 05:42:29;;;;;;;26.02;7.85;;;-3.80;99.90;;;;;;5069110;23;20032;-76
2021/01/31 05:45:20;;;;;;;24.95;6.90;;;-3.80;99.90;;;;;;5040276;28;20029;-77
2021/01/31 05:47:48;;;;;;;23.75;7.63;;;-3.10;99.90;;;;;;5012428;28;20037;-75
2021/01/31 05:50:37;;;;;;;28.80;8.10;;;-3.80;99.90;;;;;;5042081;23;20037;-76
2021/01/31 05:53:34;;;;;;;26.90;7.60;;;-3.80;99.90;;;;;;5058125;28;20267;-76
2021/01/31 05:56:25;;;;;;;26.42;7.53;;;-3.80;99.90;;;;;;5058038;28;20112;-76
2021/01/31 05:58:59;;;;;;;28.40;7.95;;;-3.80;99.90;;;;;;5060849;28;20548;-75
2021/01/31 06:01:26;;;;;;;27.95;8.57;;;-3.90;99.90;;;;;;5039045;28;20111;-76
2021/01/31 06:04:15;;;;;;;28.88;9.07;;;-3.80;99.90;;;;;;5019942;28;20022;-75
2021/01/31 06:06:45;;;;;;;;;;;-3.90;99.90;;;;;;5068593;23;20031;-76
2021/01/31 06:09:16;;;;;;;28.48;8.13;;;-3.20;99.90;;;;;;5039231;28;19928;-75
2021/01/31 06:11:44;;;;;;;29.77;8.52;;;-4.00;99.90;;;;;;5037775;28;20511;-76
2021/01/31 06:14:27;;;;;;;19.33;6.07;;;-3.80;99.90;;;;;;5038056;28;20518;-76
2021/01/31 06:17:00;;;;;;;27.95;8.15;;;-3.90;99.90;;;;;;5020799;28;20419;-76
2021/01/31 06:19:33;;;;;;;30.42;8.88;;;-3.90;99.90;;;;;;5031419;28;20072;-75
2021/01/31 06:22:14;;;;;;;26.05;8.60;;;-3.90;99.90;;;;;;5020543;28;20494;-77
2021/01/31 06:24:48;;;;;;;24.63;7.32;;;-3.90;99.90;;;;;;5016735;28;20026;-78
2021/01/31 06:27:28;;;;;;;26.58;8.25;;;-3.90;99.90;;;;;;5016408;28;20026;-75
2021/01/31 06:30:23;;;;;;;26.88;7.95;;;-4.00;99.90;;;;;;5017701;28;20372;-74
2021/01/31 06:32:51;;;;;;;24.65;8.02;;;-4.00;99.90;;;;;;5017192;28;20014;-75
2021/01/31 06:35:19;;;;;;;28.52;8.43;;;-4.00;99.90;;;;;;5019026;28;20021;-75
2021/01/31 06:38:15;;;;;;;28.27;8.47;;;-4.00;99.90;;;;;;4999955;28;20026;-75
2021/01/31 06:41:23;;;;;;;24.38;7.32;;;-4.00;99.90;;;;;;5000165;28;20125;-76
2021/01/31 06:44:03;;;;;;;27.20;7.30;;;-4.00;99.90;;;;;;5015991;28;20040;-76
2021/01/31 06:46:42;;;;;;;25.55;7.68;;;-4.00;99.90;;;;;;5017226;28;20021;-77
2021/01/31 06:49:27;;;;;;;27.48;8.27;;;-4.10;99.90;;;;;;5017374;28;20496;-77
2021/01/31 06:52:17;;;;;;;24.60;7.57;;;-2.90;99.90;;;;;;5017294;28;20113;-76
2021/01/31 06:55:18;;;;;;;28.55;7.90;;;-4.10;99.90;;;;;;5000341;28;20025;-76
2021/01/31 06:58:10;;;;;;;27.17;8.02;;;-4.10;99.90;;;;;;4920334;29;20024;-76
2021/01/31 07:01:02;;;;;;;26.48;7.35;;;-4.10;99.90;;;;;;5013277;28;20038;-76
2021/01/31 07:03:49;;;;;;;26.75;7.75;;;-4.10;99.90;;;;;;5014182;28;20014;-77
2021/01/31 07:06:37;;;;;;;23.92;7.18;;;-4.10;99.90;;;;;;5015136;28;20072;-77
2021/01/31 07:09:37;;;;;;;26.67;8.00;;;-4.10;99.90;;;;;;5016311;28;20171;-76
2021/01/31 07:12:17;;;;;;;24.98;7.15;;;-4.10;99.90;;;;;;4998022;28;20046;-76
2021/01/31 07:14:57;;;;;;;30.80;8.90;;;-4.10;99.90;;;;;;5015528;28;20029;-76
2021/01/31 07:17:34;;;;;;;24.95;7.88;;;-4.10;99.90;;;;;;5015334;28;20486;-75
2021/01/31 07:20:26;;;;;;;29.88;8.25;;;-4.10;99.90;;;;;;5015411;28;20529;-75
2021/01/31 07:23:11;;;;;;;24.70;7.55;;;-4.10;99.90;;;;;;5015392;28;20032;-76
2021/01/31 07:25:47;;;;;;;28.02;8.88;;;-4.10;99.90;;;;;;4998450;28;20058;-75
2021/01/31 07:28:19;;;;;;;28.90;8.77;;;-4.10;99.90;;;;;;5016427;28;20049;-75
2021/01/31 07:31:03;;;;;;;28.67;8.57;;;-4.10;99.90;;;;;;5001027;28;20515;-75
2021/01/31 07:33:33;;;;;;;24.95;7.85;;;-4.10;99.90;;;;;;5016870;28;20026;-76
2021/01/31 07:36:32;;;;;;;30.50;8.23;;;-4.00;99.90;;;;;;5011706;28;20105;-76
2021/01/31 07:39:04;;;;;;;26.30;7.70;;;-4.00;99.90;;;;;;5010091;28;20026;-76
2021/01/31 07:41:31;;;;;;;26.05;7.78;;;-4.00;99.90;;;;;;5016681;28;20032;-75
2021/01/31 07:44:06;;;;;;;28.95;7.93;;;-4.00;99.90;;;;;;5018861;28;20145;-76
2021/01/31 07:46:35;;;;;;;26.80;8.25;;;-4.00;99.90;;;;;;5015135;28;20060;-75
2021/01/31 07:49:03;;;;;;;32.40;9.17;;;-3.90;99.90;;;;;;5059518;23;20076;-74
2021/01/31 07:51:30;;;;;;;24.97;7.80;;;-3.90;99.90;;;;;;5064911;28;20112;-75
2021/01/31 07:53:57;;;;;;;25.75;8.05;;;-3.80;99.90;;;;;;5055456;28;20328;-76
2021/01/31 07:56:34;;;;;;;28.25;7.80;;;-3.80;99.90;;;;;;5042057;28;20480;-75
2021/01/31 07:59:20;;;;;;;23.33;7.50;;;-3.70;99.90;;;;;;5039824;28;20479;-76
2021/01/31 08:01:54;;;;;;;25.85;7.25;;;-3.60;99.90;;;;;;5055886;28;20108;-75
2021/01/31 08:04:27;;;;;;;28.42;8.50;;;-3.60;99.90;;;;;;5055335;28;20025;-75
2021/01/31 08:06:58;;;;;;;25.92;7.97;;;-3.50;99.90;;;;;;5037011;28;20040;-75
2021/01/31 08:09:27;;;;;;;26.42;7.80;;;-3.40;99.90;;;;;;5037017;28;20371;-75
2021/01/31 08:12:01;;;;;;;28.33;8.27;;;-3.40;99.90;;;;;;5037054;28;20021;-75
2021/01/31 08:15:04;;;;;;;30.77;8.60;;;-3.30;99.90;;;;;;5036941;28;20083;-75
2021/01/31 08:17:37;;;;;;;29.90;8.23;;;-3.20;99.90;;;;;;5054916;28;20029;-75
2021/01/31 08:20:28;;;;;;;28.75;7.95;;;-3.20;99.90;;;;;;5051156;23;20494;-75
2021/01/31 08:23:03;;;;;;;30.42;7.63;;;-3.10;99.90;;;;;;5054765;28;20028;-75
2021/01/31 08:25:32;;;;;;;25.60;8.13;;;-3.10;99.90;;;;;;5056487;28;20024;-75
2021/01/31 08:28:04;;;;;;;24.45;6.95;;;-3.10;99.90;;;;;;5054733;28;20384;-76
2021/01/31 08:30:41;;;;;;;22.10;6.68;;;-3.00;99.90;;;;;;5036420;28;20175;-75
2021/01/31 08:33:22;;;;;;;24.42;7.40;;;-3.00;99.90;;;;;;5055596;28;20027;-76
2021/01/31 08:35:48;;;;;;;23.92;7.47;;;-2.90;99.90;;;;;;5059441;28;20416;-76
2021/01/31 08:38:19;;;;;;;29.50;7.88;;;-2.90;99.90;;;;;;5040059;28;20029;-75
2021/01/31 08:41:03;;;;;;;24.88;8.00;;;-2.90;99.90;;;;;;5041528;28;20040;-76
2021/01/31 08:43:51;;;;;;;24.13;7.75;;;-2.90;99.90;;;;;;5040812;28;20024;-76
2021/01/31 08:46:17;;;;;;;25.77;7.40;;;-2.90;99.90;;;;;;5041004;28;20024;-75
2021/01/31 08:49:08;;;;;;;29.33;9.20;;;-1.70;99.90;;;;;;5040712;28;20425;-75
2021/01/31 08:51:36;;;;;;;32.92;7.13;;;-2.90;99.90;;;;;;5058900;28;20033;-76
2021/01/31 08:54:07;;;;;;;24.40;7.03;;;-2.80;99.90;;;;;;5043954;28;20116;-76
2021/01/31 08:56:37;;;;;;;21.67;6.78;;;-2.70;99.90;;;;;;5039062;28;20056;-75
2021/01/31 08:59:05;;;;;;;21.77;7.22;;;-2.70;99.90;;;;;;5037816;28;20147;-76
2021/01/31 09:02:01;;;;;;;22.67;7.03;;;-2.60;99.90;;;;;;5038452;28;20033;-75
2021/01/31 09:04:28;;;;;;;22.65;7.30;;;-2.50;99.90;;;;;;5020124;28;20124;-77
2021/01/31 09:07:02;;;;;;;24.60;7.70;;;-2.40;99.90;;;;;;5039584;28;20025;-75
2021/01/31 09:09:31;;;;;;;23.08;6.82;;;-2.40;99.90;;;;;;5039456;28;20048;-75
2021/01/31 09:12:05;;;;;;;24.52;6.68;;;-2.30;99.90;;;;;;5038429;28;20025;-75
2021/01/31 09:14:34;;;;;;;24.70;7.90;;;-2.30;99.90;;;;;;5020908;28;20112;-77
2021/01/31 09:17:03;;;;;;;;;;;-2.20;99.90;;;;;;5021219;28;20094;-75
2021/01/31 09:19:29;;;;;;;25.08;6.63;;;-2.10;99.90;;;;;;5020347;28;19913;-78
2021/01/31 09:22:12;;;;;;;23.13;7.72;;;-2.10;99.90;;;;;;5050312;28;20025;-79
2021/01/31 09:24:42;;;;;;;24.23;7.70;;;-2.00;99.90;;;;;;5040942;28;20029;-80
2021/01/31 09:27:15;;;;;;;23.88;7.05;;;-2.00;99.90;;;;;;5042105;28;20547;-78
2021/01/31 09:29:41;;;;;;;23.55;7.47;;;-2.00;99.90;;;;;;5058837;28;20501;-79
2021/01/31 09:32:37;;;;;;;20.33;7.18;;;-1.90;99.90;;;;;;5053139;22;20050;-79
2021/01/31 09:35:10;;;;;;;19.92;6.07;;;-1.80;99.90;;;;;;5018260;28;20041;-77
2021/01/31 09:37:36;;;;;;;21.92;7.18;;;-1.70;99.90;;;;;;5018984;28;20457;-76
2021/01/31 09:40:08;;;;;;;20.73;6.78;;;-1.60;99.90;;;;;;5000772;28;20030;-78
2021/01/31 09:42:37;;;;;;;22.67;7.63;;;-1.50;99.90;;;;;;5001601;28;20083;-77
2021/01/31 09:45:02;;;;;;;22.42;6.82;;;-1.30;99.90;;;;;;5000901;28;20048;-76
2021/01/31 09:47:28;;;;;;;20.25;6.80;;;-1.20;99.90;;;;;;5001034;28;20123;-79
2021/01/31 09:50:03;;;;;;;20.73;6.75;;;-0.90;99.90;;;;;;5000717;28;20073;-77
2021/01/31 09:52:29;;;;;;;18.77;5.90;;;-1.00;99.90;;;;;;5018578;28;20037;-77
2021/01/31 09:55:15;;;;;;;18.27;6.32;;;-0.80;99.90;;;;;;5019048;28;20384;-77
2021/01/31 09:57:47;;;;;;;21.65;6.72;;;-0.70;99.90;;;;;;5021110;23;20123;-76
2021/01/31 10:00:13;;;;;;;17.65;6.18;;;-0.60;99.90;;;;;;5072954;28;20043;-76
2021/01/31 10:02:41;;;;;;;20.10;6.18;;;-0.60;99.90;;;;;;5057834;28;20112;-76
2021/01/31 10:05:10;;;;;;;19.73;6.68;;;-0.60;99.90;;;;;;5057243;28;20471;-76
2021/01/31 10:07:49;;;;;;;18.65;5.93;;;-0.60;99.90;;;;;;5068202;28;20033;-76
2021/01/31 10:10:29;;;;;;;18.55;6.50;;;-0.70;99.90;;;;;;5056293;28;20082;-77
2021/01/31 10:13:21;;;;;;;20.42;7.18;;;-0.70;99.90;;;;;;5056465;28;20056;-78
2021/01/31 10:15:56;;;;;;;18.13;6.10;;;-0.70;99.90;;;;;;5058185;28;20489;-77
2021/01/31 10:18:39;;;;;;;19.55;6.47;;;0.70;99.90;;;;;;5055700;28;20437;-76
2021/01/31 10:21:19;;;;;;;20.38;6.60;;;-0.60;99.90;;;;;;5055571;28;20094;-77
2021/01/31 10:23:46;;;;;;;19.80;5.97;;;-0.50;99.90;;;;;;5055553;28;20090;-77
2021/01/31 10:26:19;;;;;;;20.40;7.65;;;-0.50;99.90;;;;;;5058692;28;20063;-79
2021/01/31 10:28:54;;;;;;;19.27;6.72;;;-0.40;99.90;;;;;;5057243;28;20025;-77
2021/01/31 10:31:40;;;;;;;18.02;5.88;;;-0.30;99.90;;;;;;5056470;28;20021;-76
2021/01/31 10:34:09;;;;;;;17.90;6.10;;;-0.20;99.90;;;;;;5056737;28;20514;-73
2021/01/31 10:36:42;;;;;;;18.63;6.30;;;-0.10;99.90;;;;;;5041940;28;20091;-73
2021/01/31 10:39:13;;;;;;;19.10;6.10;;;-0.10;99.90;;;;;;5037286;28;20049;-73
2021/01/31 10:41:43;;;;;;;24.85;7.55;;;0.10;99.90;;;;;;5035336;28;20033;-73
2021/01/31 10:44:10;;;;;;;20.55;6.78;;;0.20;99.90;;;;;;5037896;28;20440;-73
2021/01/31 10:46:37;;;;;;;16.77;6.03;;;0.30;99.90;;;;;;5049512;28;20073;-72
2021/01/31 10:49:04;;;;;;;19.23;6.88;;;0.40;99.90;;;;;;5054938;28;20052;-73
2021/01/31 10:51:33;;;;;;;18.50;6.03;;;0.50;99.90;;;;;;5044366;28;20487;-72
2021/01/31 10:53:59;;;;;;;;;;;0.50;99.90;;;;;;5068359;23;20053;-72
2021/01/31 10:56:25;;;;;;;16.38;5.93;;;0.60;99.90;;;;;;5055898;28;20029;-74
2021/01/31 10:58:51;;;;;;;17.70;5.97;;;0.60;99.90;;;;;;5056699;28;20391;-71
2021/01/31 11:01:18;;;;;;;16.10;5.50;;;0.70;99.90;;;;;;5056401;28;20044;-72
2021/01/31 11:03:44;;;;;;;17.20;6.03;;;0.70;99.90;;;;;;5038789;28;20029;-74
2021/01/31 11:06:10;;;;;;;16.02;5.53;;;0.70;99.90;;;;;;5069708;23;20049;-73
2021/01/31 11:09:00;;;;;;;15.63;5.93;;;0.80;99.90;;;;;;5020462;28;20022;-75
2021/01/31 11:11:25;;;;;;;17.48;6.20;;;0.80;99.90;;;;;;5037079;28;20034;-74
2021/01/31 11:13:51;;;;;;;17.23;6.07;;;0.90;99.90;;;;;;5035650;28;20033;-74
2021/01/31 11:16:18;;;;;;;17.95;6.72;;;1.00;99.90;;;;;;5149996;23;20041;-74
2021/01/31 11:18:44;;;;;;;19.13;6.82;;;1.10;99.90;;;;;;5019526;28;20032;-73
2021/01/31 11:21:12;;;;;;;15.40;5.13;;;1.30;99.90;;;;;;5030880;28;20021;-74
2021/01/31 11:23:38;;;;;;;19.38;6.13;;;1.40;99.90;;;;;;5002203;28;20038;-73
2021/01/31 11:26:03;;;;;;;17.23;6.35;;;1.60;99.90;;;;;;5021084;28;20271;-74
2021/01/31 11:28:29;;;;;;;14.40;5.28;;;1.80;99.90;;;;;;5019278;28;20026;-73
2021/01/31 11:30:55;;;;;;;14.52;5.07;;;1.80;99.90;;;;;;5053666;23;21257;-76
2021/01/31 11:33:24;;;;;;;14.85;5.88;;;2.50;99.90;;;;;;5038904;28;20463;-74
2021/01/31 11:35:50;;;;;;;13.15;4.63;;;2.00;99.90;;;;;;5057325;28;20021;-75
2021/01/31 11:38:18;;;;;;;16.40;4.93;;;2.00;98.50;;;;;;5056202;28;20167;-76
2021/01/31 11:40:44;;;;;;;15.93;5.40;;;2.10;98.20;;;;;;5055885;28;20074;-75
2021/01/31 11:43:12;;;;;;;11.45;4.78;;;2.10;97.80;;;;;;5040435;28;20043;-77
2021/01/31 11:45:38;;;;;;;13.70;5.45;;;2.20;98.40;;;;;;5040122;28;20025;-73
2021/01/31 11:48:05;;;;;;;13.93;5.60;;;2.30;97.70;;;;;;5045838;23;20068;-74
2021/01/31 11:50:37;;;;;;;15.02;4.68;;;2.40;97.00;;;;;;5018875;28;20068;-77
2021/01/31 11:53:08;;;;;;;13.38;5.00;;;2.50;96.20;;;;;;5026086;28;20037;-74
2021/01/31 11:55:34;;;;;;;10.32;4.03;;;2.60;95.60;;;;;;5016284;28;20020;-76
2021/01/31 11:58:00;;;;;;;12.75;5.07;;;2.70;94.60;;;;;;5030159;28;20096;-74
2021/01/31 12:00:25;;;;;;;13.20;4.75;;;2.80;93.50;;;;;;5044449;28;20444;-74
2021/01/31 12:02:52;;;;;;;12.88;4.80;;;2.80;94.10;;;;;;5056371;28;20076;-77
2021/01/31 12:05:19;;;;;;;11.60;3.20;;;3.00;93.80;;;;;;5037890;28;20036;-73
2021/01/31 12:07:45;;;;;;;12.05;5.07;;;3.10;92.10;;;;;;5036783;28;20043;-74
2021/01/31 12:10:13;;;;;;;12.18;4.43;;;3.20;92.70;;;;;;5050000;28;20033;-73
2021/01/31 12:12:39;;;;;;;8.85;3.22;;;3.30;90.60;;;;;;5035368;28;20029;-74
2021/01/31 12:15:11;;;;;;;8.68;3.80;;;3.40;90.60;;;;;;5035466;28;20029;-72
2021/01/31 12:17:41;;;;;;;9.93;4.30;;;3.60;90.60;;;;;;5018508;28;20030;-75
2021/01/31 12:20:09;;;;;;;12.00;4.45;;;3.60;85.00;;;;;;5013730;28;20025;-75
2021/01/31 12:22:46;;;;;;;10.48;4.47;;;3.70;87.30;;;;;;5037361;28;20112;-74
2021/01/31 12:25:15;;;;;;;9.65;3.92;;;3.70;85.20;;;;;;5022005;23;20060;-75
2021/01/31 12:27:47;;;;;;;9.77;4.13;;;3.70;86.20;;;;;;5038096;28;20091;-75
2021/01/31 12:30:21;;;;;;;9.95;3.97;;;3.70;84.10;;;;;;5037952;28;20092;-73
2021/01/31 12:32:52;;;;;;;9.52;3.63;;;3.60;83.80;;;;;;5056066;28;20024;-75
2021/01/31 12:35:18;;;;;;;10.05;3.75;;;3.70;85.60;;;;;;5035732;28;20025;-75
2021/01/31 12:37:46;;;;;;;9.23;4.13;;;3.70;86.30;;;;;;5033393;23;20052;-75
2021/01/31 12:40:14;;;;;;;11.57;4.47;;;3.80;84.00;;;;;;5075934;28;20556;-75
2021/01/31 12:42:46;;;;;;;10.27;3.95;;;4.00;82.50;;;;;;5045871;28;20493;-77
2021/01/31 12:45:14;;;;;;;10.57;3.50;;;4.20;83.60;;;;;;5060704;28;20052;-75
2021/01/31 12:47:40;;;;;;;10.85;3.95;;;4.40;82.30;;;;;;5063096;22;20077;-74
2021/01/31 12:50:07;;;;;;;8.60;3.42;;;4.40;79.80;;;;;;4997488;28;20407;-78
2021/01/31 12:52:35;;;;;;;8.60;3.38;;;4.30;78.60;;;;;;5014573;28;20493;-75
2021/01/31 12:55:00;;;;;;;10.20;3.80;;;4.30;77.10;;;;;;5015535;28;20451;-74
2021/01/31 12:57:31;;;;;;;9.48;3.80;;;4.20;77.80;;;;;;4997936;28;20109;-76
2021/01/31 12:59:57;;;;;;;9.85;4.28;;;4.10;79.40;;;;;;5044089;23;20037;-75
2021/01/31 13:02:23;;;;;;;6.47;2.88;;;4.20;80.50;;;;;;5054309;28;20083;-75
2021/01/31 13:04:49;;;;;;;9.45;3.65;;;4.40;79.70;;;;;;5059544;22;20049;-76
2021/01/31 13:07:15;;;;;;;8.35;3.30;;;4.60;77.20;;;;;;5038397;28;20037;-74
2021/01/31 13:09:42;;;;;;;9.32;3.55;;;4.80;75.90;;;;;;5034247;28;20029;-77
2021/01/31 13:12:08;;;;;;;8.52;3.40;;;4.90;76.00;;;;;;5035434;28;20051;-75
2021/01/31 13:14:38;;;;;;;10.63;3.90;;;5.10;76.70;;;;;;5035746;28;20025;-75
2021/01/31 13:17:04;;;;;;;7.97;3.67;;;5.20;75.60;;;;;;5018108;28;20026;-75